Time;durP1;ratioP1;P1;durP2;ratioP2;P2;SDS_P1;SDS_P2;PMS_P1;PMS_P2;Temp;Humidity;BMP_temperature;BMP_pressure;BME280_temperature;BME280_humidity;BME280_pressure;Samples;Min_cycle;Max_cycle;Signal;HPM_P1;HPM_P2
2023/12/04 00:02:10;;;;;;;51.50;21.80;;;0.30;99.90;;;;;;5112644;28;20407;-82
2023/12/04 00:04:38;;;;;;;49.60;23.90;;;0.30;99.90;;;;;;5112848;28;20043;-82
2023/12/04 00:07:04;;;;;;;54.95;24.63;;;0.20;99.90;;;;;;5112822;28;20055;-82
2023/12/04 00:09:30;;;;;;;58.97;25.08;;;0.30;99.90;;;;;;5113145;28;20044;-82
2023/12/04 00:11:55;;;;;;;48.28;22.73;;;0.30;99.90;;;;;;5113271;28;20047;-82
2023/12/04 00:14:21;;;;;;;51.28;22.35;;;0.30;99.90;;;;;;5112910;28;20043;-82
2023/12/04 00:16:46;;;;;;;54.22;23.45;;;0.30;99.90;;;;;;5113117;28;20044;-82
2023/12/04 00:19:12;;;;;;;49.22;21.98;;;0.30;99.90;;;;;;5112750;28;20391;-82
2023/12/04 00:21:38;;;;;;;49.35;22.85;;;0.20;99.90;;;;;;5112587;28;20054;-82
2023/12/04 00:24:04;;;;;;;53.40;23.35;;;0.30;99.90;;;;;;5113056;28;20126;-82
2023/12/04 00:26:30;;;;;;;53.60;22.95;;;0.20;99.90;;;;;;5112973;28;20043;-82
2023/12/04 00:28:55;;;;;;;54.97;24.52;;;0.30;99.90;;;;;;5112760;28;20112;-82
2023/12/04 00:31:21;;;;;;;50.55;23.02;;;0.30;99.90;;;;;;5113035;28;20075;-82
2023/12/04 00:33:48;;;;;;;51.75;20.60;;;0.20;99.90;;;;;;5112422;28;20161;-82
2023/12/04 00:36:14;;;;;;;48.10;20.00;;;0.30;99.90;;;;;;5112488;28;20493;-81
2023/12/04 00:38:39;;;;;;;48.13;22.33;;;0.30;99.90;;;;;;5112838;28;20047;-81
2023/12/04 00:41:05;;;;;;;49.67;23.27;;;0.30;99.90;;;;;;5112564;28;20059;-82
2023/12/04 00:43:31;;;;;;;54.50;23.63;;;0.30;99.90;;;;;;5112635;28;20093;-82
2023/12/04 00:45:57;;;;;;;45.80;22.88;;;0.20;99.90;;;;;;5112574;28;20082;-82
2023/12/04 00:48:22;;;;;;;55.22;23.45;;;0.30;99.90;;;;;;5112459;28;20070;-82
2023/12/04 00:50:48;;;;;;;52.97;21.10;;;0.20;99.90;;;;;;5112660;28;20048;-82
2023/12/04 00:53:14;;;;;;;48.22;23.02;;;0.30;99.90;;;;;;5112501;28;20040;-82
2023/12/04 00:55:39;;;;;;;51.40;22.38;;;0.20;99.90;;;;;;5116205;28;20143;-82
2023/12/04 00:58:05;;;;;;;49.20;23.05;;;0.20;99.90;;;;;;5116670;28;20047;-82
2023/12/04 01:00:31;;;;;;;47.83;22.88;;;0.30;99.90;;;;;;5116458;28;20044;-82
2023/12/04 01:02:56;;;;;;;47.17;20.77;;;0.30;99.90;;;;;;5116334;28;20070;-82
2023/12/04 01:05:22;;;;;;;51.78;24.50;;;0.30;99.90;;;;;;5116638;28;20047;-81
2023/12/04 01:07:47;;;;;;;44.08;20.67;;;0.30;99.90;;;;;;5116600;28;20035;-82
2023/12/04 01:10:13;;;;;;;44.08;21.05;;;0.30;99.90;;;;;;5116796;28;20391;-82
2023/12/04 01:12:39;;;;;;;52.40;23.35;;;0.30;99.90;;;;;;5116364;28;20390;-82
2023/12/04 01:15:05;;;;;;;51.72;24.70;;;0.20;99.90;;;;;;5116304;28;20044;-81
2023/12/04 01:17:30;;;;;;;49.00;22.08;;;0.20;99.90;;;;;;5116104;28;20036;-82
2023/12/04 01:19:57;;;;;;;52.10;24.58;;;0.20;99.90;;;;;;5116076;28;20101;-81
2023/12/04 01:22:23;;;;;;;50.50;23.35;;;0.20;99.90;;;;;;5115915;28;20074;-81
2023/12/04 01:24:48;;;;;;;50.30;22.73;;;0.20;99.90;;;;;;5116159;28;20121;-81
2023/12/04 01:27:14;;;;;;;43.75;20.65;;;0.30;99.90;;;;;;5116122;28;20053;-81
2023/12/04 01:29:40;;;;;;;50.60;22.42;;;0.30;99.90;;;;;;5116031;28;20127;-82
2023/12/04 01:32:06;;;;;;;56.42;25.42;;;0.30;99.90;;;;;;5116475;28;20075;-82
2023/12/04 01:34:31;;;;;;;51.08;22.90;;;0.20;99.90;;;;;;5115696;28;20085;-82
2023/12/04 01:36:57;;;;;;;45.40;22.73;;;0.20;99.90;;;;;;5115762;28;20558;-82
2023/12/04 01:39:23;;;;;;;55.78;22.65;;;0.30;99.90;;;;;;5116250;28;20054;-82
2023/12/04 01:41:49;;;;;;;50.65;23.08;;;0.20;99.90;;;;;;5115851;28;20055;-81
2023/12/04 01:44:17;;;;;;;57.55;24.55;;;0.20;99.90;;;;;;5116011;28;20088;-82
2023/12/04 01:46:43;;;;;;;51.55;24.75;;;0.20;99.90;;;;;;5115556;28;20104;-81
2023/12/04 01:49:09;;;;;;;46.92;21.80;;;0.20;99.90;;;;;;5115453;28;20039;-82
2023/12/04 01:51:36;;;;;;;52.30;23.98;;;0.20;99.90;;;;;;5115849;28;20044;-82
2023/12/04 01:54:04;;;;;;;58.15;25.08;;;0.20;99.90;;;;;;5115808;28;20076;-82
2023/12/04 01:56:30;;;;;;;57.38;27.50;;;0.20;99.90;;;;;;5115765;28;20047;-82
2023/12/04 01:58:56;;;;;;;51.28;23.35;;;0.20;99.90;;;;;;5115462;28;20066;-82
2023/12/04 02:01:23;;;;;;;57.22;25.20;;;0.20;99.90;;;;;;5115359;28;20067;-82
2023/12/04 02:03:49;;;;;;;51.47;24.67;;;0.20;99.90;;;;;;5115314;28;20055;-82
2023/12/04 02:06:16;;;;;;;50.72;22.85;;;0.20;99.90;;;;;;5114206;28;20035;-81
2023/12/04 02:08:43;;;;;;;51.75;22.42;;;0.20;99.90;;;;;;5115522;28;20137;-82
2023/12/04 02:11:09;;;;;;;54.53;23.75;;;0.20;99.90;;;;;;5115432;28;20123;-82
2023/12/04 02:13:35;;;;;;;52.65;23.35;;;0.20;99.90;;;;;;5116458;28;20044;-82
2023/12/04 02:16:07;;;;;;;55.08;23.30;;;0.20;99.90;;;;;;5115052;28;20054;-82
2023/12/04 02:18:34;;;;;;;49.72;22.02;;;0.20;99.90;;;;;;5115277;28;20047;-82
2023/12/04 02:21:01;;;;;;;50.08;21.90;;;0.30;99.90;;;;;;5115161;28;20048;-82
2023/12/04 02:23:27;;;;;;;52.35;23.27;;;0.20;99.90;;;;;;5115281;28;20043;-82
2023/12/04 02:25:59;;;;;;;49.13;23.23;;;0.20;99.90;;;;;;5115208;28;20047;-82
2023/12/04 02:28:27;;;;;;;48.38;21.52;;;0.20;99.90;;;;;;5114815;28;20054;-82
2023/12/04 02:30:53;;;;;;;44.83;22.48;;;0.30;99.90;;;;;;5114638;28;20458;-83
2023/12/04 02:33:24;;;;;;;50.72;22.52;;;0.20;99.90;;;;;;5114429;28;20063;-82
2023/12/04 02:35:51;;;;;;;53.28;21.55;;;0.30;99.90;;;;;;5114803;28;20079;-83
2023/12/04 02:38:18;;;;;;;50.53;23.45;;;0.30;99.90;;;;;;5114689;28;20039;-83
2023/12/04 02:40:44;;;;;;;47.72;20.88;;;0.30;99.90;;;;;;5114537;28;20071;-82
2023/12/04 02:43:09;;;;;;;47.03;21.27;;;0.30;99.90;;;;;;5114477;28;20086;-83
2023/12/04 02:45:35;;;;;;;49.92;23.50;;;0.30;99.90;;;;;;5114401;28;20040;-82
2023/12/04 02:48:00;;;;;;;52.92;22.63;;;0.30;99.90;;;;;;5114622;28;20071;-83
2023/12/04 02:50:26;;;;;;;49.55;21.38;;;0.30;99.90;;;;;;5114667;28;20043;-83
2023/12/04 02:52:52;;;;;;;48.17;24.00;;;0.30;99.90;;;;;;5114434;28;20129;-83
2023/12/04 02:55:17;;;;;;;47.70;20.98;;;0.30;99.90;;;;;;5114188;28;20044;-83
2023/12/04 02:57:43;;;;;;;51.78;21.13;;;0.30;99.90;;;;;;5114074;28;20048;-83
2023/12/04 03:00:09;;;;;;;54.28;21.40;;;0.30;99.90;;;;;;5114140;28;20078;-83
2023/12/04 03:02:35;;;;;;;47.55;22.00;;;0.30;99.90;;;;;;5113997;28;20039;-83
2023/12/04 03:05:01;;;;;;;45.53;21.52;;;0.30;99.90;;;;;;5114296;28;20071;-83
2023/12/04 03:07:27;;;;;;;48.78;21.20;;;0.30;99.90;;;;;;5114416;28;20067;-83
2023/12/04 03:09:52;;;;;;;48.53;20.60;;;0.30;99.90;;;;;;5114178;28;20440;-83
2023/12/04 03:12:18;;;;;;;49.28;21.52;;;0.30;99.90;;;;;;5114156;28;20050;-83
2023/12/04 03:14:44;;;;;;;46.17;20.73;;;0.30;99.90;;;;;;5113733;28;20384;-84
2023/12/04 03:17:10;;;;;;;50.90;22.17;;;0.40;99.90;;;;;;5113832;28;20101;-83
2023/12/04 03:19:35;;;;;;;43.60;19.65;;;0.40;99.90;;;;;;5113908;28;20035;-83
2023/12/04 03:22:01;;;;;;;44.85;20.75;;;0.40;99.90;;;;;;5113701;28;20044;-84
2023/12/04 03:24:27;;;;;;;46.97;20.58;;;0.40;99.90;;;;;;5113561;28;20475;-83
2023/12/04 03:26:52;;;;;;;48.42;19.48;;;0.30;99.90;;;;;;5113622;28;20044;-84
2023/12/04 03:29:18;;;;;;;50.83;21.40;;;0.40;99.90;;;;;;5113843;28;20043;-84
2023/12/04 03:31:44;;;;;;;55.88;25.55;;;0.30;99.90;;;;;;5113381;28;20053;-84
2023/12/04 03:34:11;;;;;;;50.13;23.80;;;0.30;99.90;;;;;;5113735;28;20043;-84
2023/12/04 03:36:37;;;;;;;46.17;21.30;;;0.40;99.90;;;;;;5113489;28;20519;-84
2023/12/04 03:39:04;;;;;;;47.67;20.95;;;0.40;99.90;;;;;;5113513;28;20118;-84
2023/12/04 03:41:29;;;;;;;51.63;23.30;;;0.30;99.90;;;;;;5113219;28;20474;-84
2023/12/04 03:43:57;;;;;;;47.10;19.00;;;0.40;99.90;;;;;;5113423;28;20052;-84
2023/12/04 03:46:23;;;;;;;50.92;20.60;;;0.40;99.90;;;;;;5113329;28;20386;-84
2023/12/04 03:48:49;;;;;;;51.53;21.05;;;0.40;99.90;;;;;;5112891;28;20043;-84
2023/12/04 03:51:14;;;;;;;52.47;22.25;;;0.40;99.90;;;;;;5113318;28;20050;-84
2023/12/04 03:53:40;;;;;;;50.38;23.23;;;0.40;99.90;;;;;;5113323;28;20123;-84
2023/12/04 03:56:06;;;;;;;48.20;21.15;;;0.40;99.90;;;;;;5113376;28;20039;-84
2023/12/04 03:58:32;;;;;;;45.63;20.85;;;0.40;99.90;;;;;;5113355;28;20036;-84
2023/12/04 04:00:57;;;;;;;58.20;23.20;;;0.40;99.90;;;;;;5113208;28;20135;-85
2023/12/04 04:03:23;;;;;;;43.30;19.00;;;0.40;99.90;;;;;;5113140;28;20478;-84
2023/12/04 04:05:49;;;;;;;45.78;21.45;;;0.40;99.90;;;;;;5113331;28;20137;-85
2023/12/04 04:08:14;;;;;;;43.63;21.30;;;0.40;99.90;;;;;;5113137;28;20082;-84
2023/12/04 04:10:40;;;;;;;48.30;22.02;;;0.40;99.90;;;;;;5114131;28;20424;-85
2023/12/04 04:13:05;;;;;;;48.83;20.25;;;0.40;99.90;;;;;;5112849;28;20043;-85
2023/12/04 04:15:32;;;;;;;50.15;21.25;;;0.40;99.90;;;;;;5112935;28;20048;-85
2023/12/04 04:17:57;;;;;;;53.55;22.30;;;0.40;99.90;;;;;;5112934;28;20039;-85
2023/12/04 04:20:23;;;;;;;48.22;21.30;;;0.40;99.90;;;;;;5112887;28;20053;-85
2023/12/04 04:22:49;;;;;;;49.08;22.08;;;0.40;99.90;;;;;;5112651;28;20046;-85
2023/12/04 04:25:15;;;;;;;51.47;22.52;;;0.40;99.90;;;;;;5112779;28;20127;-85
2023/12/04 04:27:41;;;;;;;47.72;20.13;;;0.40;99.90;;;;;;5113025;28;20051;-84
2023/12/04 04:30:08;;;;;;;48.40;20.90;;;0.40;99.90;;;;;;5117947;28;20051;-85
2023/12/04 04:32:37;;;;;;;61.92;26.45;;;0.40;99.90;;;;;;5119173;28;20120;-85
2023/12/04 04:35:04;;;;;;;45.53;21.38;;;0.40;99.90;;;;;;5119857;28;20040;-85
2023/12/04 04:37:30;;;;;;;49.75;23.45;;;0.50;99.90;;;;;;5119349;28;20059;-85
2023/12/04 04:39:55;;;;;;;48.38;21.60;;;0.40;99.90;;;;;;5119410;28;20036;-85
2023/12/04 04:42:22;;;;;;;49.88;21.10;;;0.40;99.90;;;;;;5119451;28;20051;-85
2023/12/04 04:44:48;;;;;;;46.92;21.63;;;0.50;99.90;;;;;;5119741;28;20050;-85
2023/12/04 04:47:13;;;;;;;51.15;22.52;;;0.40;99.90;;;;;;5119501;28;20044;-85
2023/12/04 04:49:39;;;;;;;54.75;23.90;;;0.40;99.90;;;;;;5119217;28;20097;-86
2023/12/04 04:52:05;;;;;;;47.38;20.65;;;0.50;99.90;;;;;;5119340;28;20036;-86
2023/12/04 04:54:32;;;;;;;47.28;22.17;;;0.40;99.90;;;;;;5119259;28;20039;-86
2023/12/04 04:56:58;;;;;;;55.70;25.88;;;0.40;99.90;;;;;;5119209;28;20047;-86
2023/12/04 04:59:23;;;;;;;44.25;18.88;;;0.40;99.90;;;;;;5119206;28;20046;-86
2023/12/04 05:01:49;;;;;;;49.78;20.63;;;0.50;99.90;;;;;;5119245;28;20044;-86
2023/12/04 05:04:14;;;;;;;51.00;22.23;;;0.50;99.90;;;;;;5119185;28;20048;-85
2023/12/04 05:06:40;;;;;;;40.88;18.10;;;0.50;99.90;;;;;;5120492;28;20100;-86
2023/12/04 05:09:06;;;;;;;48.33;20.77;;;0.50;99.90;;;;;;5119042;28;20047;-86
2023/12/04 05:11:34;;;;;;;49.78;22.13;;;0.50;99.90;;;;;;5120254;28;20372;-86
2023/12/04 05:13:59;;;;;;;47.03;20.70;;;0.50;99.90;;;;;;5120504;28;20055;-86
2023/12/04 05:16:25;;;;;;;50.10;20.65;;;0.50;99.90;;;;;;5119535;28;20036;-86
2023/12/04 05:18:51;;;;;;;51.75;21.33;;;0.50;99.90;;;;;;5118996;28;20398;-86
2023/12/04 05:21:16;;;;;;;42.50;19.50;;;0.50;99.90;;;;;;5119185;28;20122;-85
2023/12/04 05:23:42;;;;;;;43.22;18.83;;;0.50;99.90;;;;;;5119213;28;20040;-84
2023/12/04 05:26:07;;;;;;;46.13;18.73;;;0.50;99.90;;;;;;5119083;28;20036;-84
2023/12/04 05:28:34;;;;;;;47.72;20.98;;;0.50;99.90;;;;;;5119204;28;20056;-84
2023/12/04 05:31:00;;;;;;;43.25;19.70;;;0.50;99.90;;;;;;5119228;28;20047;-84
2023/12/04 05:33:27;;;;;;;42.47;18.20;;;0.50;99.90;;;;;;5118696;28;20059;-84
2023/12/04 05:35:52;;;;;;;43.85;20.38;;;0.50;99.90;;;;;;5118715;28;20142;-84
2023/12/04 05:38:18;;;;;;;49.88;22.25;;;0.50;99.90;;;;;;5118866;28;20079;-84
2023/12/04 05:40:44;;;;;;;45.53;19.58;;;0.50;99.90;;;;;;5117531;28;20039;-84
2023/12/04 05:43:10;;;;;;;47.40;20.35;;;0.50;99.90;;;;;;5115900;28;20109;-84
2023/12/04 05:45:35;;;;;;;42.50;19.58;;;0.50;99.90;;;;;;5115695;28;20435;-84
2023/12/04 05:48:01;;;;;;;43.05;18.27;;;0.50;99.90;;;;;;5116582;28;20040;-84
2023/12/04 05:50:27;;;;;;;50.53;20.27;;;0.50;99.90;;;;;;5115403;28;20050;-84
2023/12/04 05:52:53;;;;;;;44.10;18.17;;;0.50;99.90;;;;;;5115851;28;20040;-84
2023/12/04 05:55:20;;;;;;;44.60;18.52;;;0.50;99.90;;;;;;5115511;28;20368;-84
2023/12/04 05:57:46;;;;;;;43.53;19.90;;;0.60;99.90;;;;;;5115488;28;20043;-84
2023/12/04 06:00:12;;;;;;;46.72;22.02;;;0.60;99.90;;;;;;5116772;28;20047;-84
2023/12/04 06:02:39;;;;;;;43.42;20.52;;;0.50;99.90;;;;;;5115351;28;20096;-84
2023/12/04 06:05:06;;;;;;;47.13;20.25;;;0.60;99.90;;;;;;5115454;28;20040;-84
2023/12/04 06:07:31;;;;;;;38.72;16.67;;;0.50;99.90;;;;;;5115236;28;20044;-84
2023/12/04 06:09:57;;;;;;;43.63;20.25;;;0.60;99.90;;;;;;5115215;28;20172;-84
2023/12/04 06:12:22;;;;;;;40.17;18.88;;;0.60;99.90;;;;;;5115278;28;20130;-84
2023/12/04 06:14:48;;;;;;;43.55;19.75;;;0.50;99.90;;;;;;5115503;28;20043;-84
2023/12/04 06:17:14;;;;;;;39.35;17.27;;;0.60;99.90;;;;;;5115381;28;20047;-84
2023/12/04 06:19:40;;;;;;;43.00;20.08;;;0.60;99.90;;;;;;5114876;28;20058;-82
2023/12/04 06:22:05;;;;;;;40.92;17.98;;;0.60;99.90;;;;;;5114993;28;20054;-84
2023/12/04 06:24:32;;;;;;;40.13;18.77;;;0.60;99.90;;;;;;5116449;28;20039;-84
2023/12/04 06:26:58;;;;;;;47.22;20.98;;;0.60;99.90;;;;;;5114900;28;20052;-84
2023/12/04 06:29:24;;;;;;;43.63;21.02;;;0.60;99.90;;;;;;5114917;28;20044;-84
2023/12/04 06:31:50;;;;;;;37.40;16.35;;;0.60;99.90;;;;;;5115066;28;20495;-84
2023/12/04 06:34:17;;;;;;;39.03;18.17;;;0.70;99.90;;;;;;5114124;28;20052;-84
2023/12/04 06:36:43;;;;;;;37.78;17.50;;;0.70;99.90;;;;;;5114634;28;20050;-84
2023/12/04 06:39:14;;;;;;;36.10;17.77;;;0.60;99.90;;;;;;5114643;28;20555;-84
2023/12/04 06:41:40;;;;;;;39.85;18.67;;;0.60;99.90;;;;;;5114585;28;20493;-84
2023/12/04 06:44:07;;;;;;;36.05;16.83;;;0.60;99.90;;;;;;5114574;28;20088;-84
2023/12/04 06:46:37;;;;;;;37.78;14.80;;;0.70;99.90;;;;;;5114712;28;20055;-83
2023/12/04 06:49:06;;;;;;;35.50;16.50;;;0.70;99.90;;;;;;5114752;28;20092;-83
2023/12/04 06:51:32;;;;;;;36.72;17.38;;;0.70;99.90;;;;;;5114042;28;20054;-84
2023/12/04 06:54:00;;;;;;;39.85;17.67;;;0.70;99.90;;;;;;5114318;28;20047;-85
2023/12/04 06:56:26;;;;;;;39.20;17.35;;;0.70;99.90;;;;;;5114379;28;20043;-84
2023/12/04 06:58:52;;;;;;;36.53;16.23;;;0.70;99.90;;;;;;5114511;28;20040;-84
2023/12/04 07:01:17;;;;;;;38.00;17.08;;;0.70;99.90;;;;;;5114237;28;20043;-84
2023/12/04 07:03:43;;;;;;;36.13;17.17;;;0.60;99.90;;;;;;5114027;28;20042;-84
2023/12/04 07:06:09;;;;;;;35.47;17.70;;;0.60;99.90;;;;;;5114090;28;20100;-84
2023/12/04 07:08:34;;;;;;;41.28;19.80;;;0.60;99.90;;;;;;5114294;28;20036;-84
2023/12/04 07:11:00;;;;;;;37.65;17.65;;;0.60;99.90;;;;;;5114326;28;20113;-84
2023/12/04 07:13:26;;;;;;;35.83;19.30;;;0.70;99.90;;;;;;5113962;28;20376;-84
2023/12/04 07:15:52;;;;;;;36.90;16.25;;;0.60;99.90;;;;;;5113768;28;20497;-84
2023/12/04 07:18:17;;;;;;;37.95;17.77;;;0.60;99.90;;;;;;5113803;28;20043;-84
2023/12/04 07:20:43;;;;;;;33.97;17.83;;;0.60;99.90;;;;;;5113959;28;20090;-84
2023/12/04 07:23:08;;;;;;;33.83;16.70;;;0.70;99.90;;;;;;5113785;28;20047;-84
2023/12/04 07:25:34;;;;;;;39.78;17.85;;;0.70;99.90;;;;;;5113898;28;20138;-84
2023/12/04 07:28:00;;;;;;;34.30;16.73;;;0.60;99.90;;;;;;5113794;28;20453;-84
2023/12/04 07:30:28;;;;;;;42.28;17.73;;;0.60;99.90;;;;;;5113814;28;20383;-84
2023/12/04 07:32:53;;;;;;;36.15;16.92;;;0.60;99.90;;;;;;5113268;28;20123;-84
2023/12/04 07:35:19;;;;;;;35.80;16.02;;;0.60;99.90;;;;;;5113464;28;20150;-84
2023/12/04 07:37:45;;;;;;;38.28;17.65;;;0.60;99.90;;;;;;5113535;28;20051;-84
2023/12/04 07:40:11;;;;;;;32.15;16.25;;;0.60;99.90;;;;;;5114703;28;20048;-84
2023/12/04 07:42:38;;;;;;;29.65;16.08;;;0.60;99.90;;;;;;5113211;28;20051;-84
2023/12/04 07:45:04;;;;;;;32.75;16.67;;;0.60;99.90;;;;;;5113557;28;20047;-85
2023/12/04 07:47:30;;;;;;;35.85;18.20;;;0.60;99.90;;;;;;5113286;28;20040;-84
2023/12/04 07:49:55;;;;;;;33.58;16.13;;;0.60;99.90;;;;;;5113213;28;20035;-84
2023/12/04 07:52:23;;;;;;;34.22;15.68;;;0.60;99.90;;;;;;5088467;22;20148;-84
2023/12/04 07:54:49;;;;;;;35.33;16.88;;;0.60;99.90;;;;;;5071946;22;20643;-83
2023/12/04 07:57:14;;;;;;;35.40;14.95;;;0.50;99.90;;;;;;5070942;28;20571;-83
2023/12/04 07:59:40;;;;;;;39.70;17.52;;;0.60;99.90;;;;;;5071546;28;20086;-83
2023/12/04 08:02:05;;;;;;;32.40;15.73;;;0.60;99.90;;;;;;5071652;28;20090;-85
2023/12/04 08:04:31;;;;;;;35.78;15.98;;;0.60;99.90;;;;;;5071764;28;20086;-85
2023/12/04 08:06:57;;;;;;;30.77;16.27;;;0.60;99.90;;;;;;5072234;28;20094;-86
2023/12/04 08:09:22;;;;;;;31.48;16.05;;;0.60;99.90;;;;;;5070511;28;20040;-87
2023/12/04 08:11:48;;;;;;;32.80;18.02;;;0.60;99.90;;;;;;5062732;28;20045;-86
2023/12/04 08:14:14;;;;;;;35.58;17.25;;;0.60;99.90;;;;;;5051990;28;20041;-85
2023/12/04 08:16:39;;;;;;;30.52;15.82;;;0.60;99.90;;;;;;5051974;28;20040;-82
2023/12/04 08:19:05;;;;;;;30.65;14.95;;;0.60;99.90;;;;;;5052396;28;20084;-85
2023/12/04 08:21:32;;;;;;;30.25;16.30;;;0.60;99.90;;;;;;5051676;28;20131;-85
2023/12/04 08:23:58;;;;;;;33.45;15.52;;;0.60;99.90;;;;;;5051938;28;20098;-85
2023/12/04 08:26:24;;;;;;;30.55;16.52;;;0.70;99.90;;;;;;5051620;28;20416;-86
2023/12/04 08:28:53;;;;;;;30.67;15.55;;;0.70;99.90;;;;;;5052070;28;20037;-86
2023/12/04 08:31:19;;;;;;;29.92;15.43;;;0.70;99.90;;;;;;5051823;28;20064;-85
2023/12/04 08:33:45;;;;;;;30.65;13.57;;;0.60;99.90;;;;;;5051917;28;20404;-83
2023/12/04 08:36:11;;;;;;;32.28;15.60;;;0.70;99.90;;;;;;5035151;28;20052;-86
2023/12/04 08:38:37;;;;;;;30.08;14.60;;;0.70;99.90;;;;;;5051709;28;20045;-83
2023/12/04 08:41:06;;;;;;;31.58;14.45;;;0.70;99.90;;;;;;5051486;28;20051;-83
2023/12/04 08:43:32;;;;;;;29.80;15.52;;;0.70;99.90;;;;;;5051778;28;20060;-84
2023/12/04 08:46:03;;;;;;;28.75;15.50;;;0.70;99.90;;;;;;5051634;28;20067;-83
2023/12/04 08:48:29;;;;;;;26.23;14.25;;;0.70;99.90;;;;;;5051590;28;20412;-86
2023/12/04 08:50:55;;;;;;;27.65;14.27;;;0.70;99.90;;;;;;5051543;28;20045;-86
2023/12/04 08:53:20;;;;;;;30.02;14.15;;;0.80;99.90;;;;;;5051633;28;20126;-86
2023/12/04 08:55:48;;;;;;;29.05;14.73;;;0.70;99.90;;;;;;5053862;28;20063;-83
2023/12/04 08:58:14;;;;;;;31.10;13.90;;;0.80;99.90;;;;;;5071052;28;20120;-85
2023/12/04 09:00:42;;;;;;;27.52;13.05;;;0.80;99.90;;;;;;5071476;28;20136;-84
2023/12/04 09:03:11;;;;;;;28.02;13.57;;;0.80;99.90;;;;;;5071547;28;20052;-83
2023/12/04 09:05:37;;;;;;;30.27;13.85;;;0.80;99.90;;;;;;5071611;28;20562;-84
2023/12/04 09:08:03;;;;;;;29.20;14.52;;;0.80;99.90;;;;;;5071681;28;20539;-83
2023/12/04 09:10:29;;;;;;;28.67;14.15;;;0.80;99.90;;;;;;5071610;28;20109;-83
2023/12/04 09:12:54;;;;;;;26.75;12.75;;;0.90;99.90;;;;;;5071231;28;20078;-83
2023/12/04 09:15:20;;;;;;;29.48;14.07;;;0.90;99.90;;;;;;5072484;28;20040;-83
2023/12/04 09:17:45;;;;;;;25.52;13.48;;;0.80;99.90;;;;;;5075175;28;20070;-83
2023/12/04 09:20:11;;;;;;;29.02;12.90;;;0.90;99.90;;;;;;5075131;28;20053;-83
2023/12/04 09:22:38;;;;;;;28.13;12.73;;;0.90;99.90;;;;;;5074931;28;20129;-83
2023/12/04 09:25:08;;;;;;;25.40;13.05;;;0.90;99.90;;;;;;5075278;28;20054;-84
2023/12/04 09:27:34;;;;;;;25.15;12.23;;;0.90;99.90;;;;;;5075285;28;20048;-83
2023/12/04 09:30:00;;;;;;;23.98;11.57;;;0.90;99.90;;;;;;5074882;28;20468;-83
2023/12/04 09:32:26;;;;;;;25.70;12.82;;;0.90;99.90;;;;;;5074892;28;20040;-82
2023/12/04 09:34:51;;;;;;;23.02;11.32;;;0.90;99.90;;;;;;5066409;28;20048;-83
2023/12/04 09:37:17;;;;;;;25.00;12.75;;;1.00;99.90;;;;;;5064858;28;20396;-83
2023/12/04 09:39:43;;;;;;;24.80;12.90;;;1.00;99.90;;;;;;5067284;28;20047;-82
2023/12/04 09:42:09;;;;;;;25.58;12.32;;;1.00;99.90;;;;;;5074811;28;20194;-82
2023/12/04 09:44:37;;;;;;;23.77;11.73;;;1.00;99.90;;;;;;5074711;28;20049;-82
2023/12/04 09:47:04;;;;;;;19.98;10.35;;;1.10;99.90;;;;;;5074895;28;20044;-82
2023/12/04 09:49:30;;;;;;;23.80;11.77;;;1.10;99.90;;;;;;5074650;28;20051;-82
2023/12/04 09:51:59;;;;;;;23.17;11.25;;;1.10;99.90;;;;;;5074588;28;20052;-82
2023/12/04 09:54:26;;;;;;;24.92;11.43;;;1.10;99.90;;;;;;5066655;28;20057;-82
2023/12/04 09:56:53;;;;;;;26.73;13.15;;;1.20;99.90;;;;;;5054513;28;20132;-82
2023/12/04 09:59:25;;;;;;;20.98;10.55;;;1.20;99.90;;;;;;5054715;28;20055;-82
2023/12/04 10:01:51;;;;;;;23.98;11.77;;;1.20;99.90;;;;;;5054327;28;20049;-81
2023/12/04 10:04:17;;;;;;;23.15;11.45;;;1.20;99.90;;;;;;5054257;28;20047;-82
2023/12/04 10:06:45;;;;;;;21.50;11.32;;;1.10;99.90;;;;;;5054896;28;20127;-82
2023/12/04 10:09:13;;;;;;;24.42;11.35;;;1.20;99.90;;;;;;5054209;28;20049;-82
2023/12/04 10:11:42;;;;;;;22.75;11.15;;;1.20;99.90;;;;;;5054485;28;20580;-83
2023/12/04 10:14:19;;;;;;;23.50;12.02;;;1.20;99.90;;;;;;5054799;28;20045;-82
2023/12/04 10:16:45;;;;;;;21.00;9.95;;;1.20;99.90;;;;;;5062590;28;20065;-82
2023/12/04 10:19:22;;;;;;;18.42;10.05;;;1.20;99.90;;;;;;5056289;28;20041;-82
2023/12/04 10:21:49;;;;;;;20.88;11.13;;;1.20;99.90;;;;;;5053957;28;20216;-82
2023/12/04 10:24:36;;;;;;;21.75;10.95;;;1.20;99.90;;;;;;5054181;28;20045;-82
2023/12/04 10:27:05;;;;;;;21.30;9.73;;;1.30;99.90;;;;;;5052952;28;20048;-82
2023/12/04 10:29:48;;;;;;;19.77;11.32;;;1.30;99.90;;;;;;5069208;28;20044;-82
2023/12/04 10:32:19;;;;;;;19.33;10.77;;;1.40;99.90;;;;;;5073002;28;20123;-81
2023/12/04 10:34:45;;;;;;;20.38;10.10;;;1.40;99.90;;;;;;5074021;28;20438;-81
2023/12/04 10:37:11;;;;;;;19.27;9.60;;;1.50;99.90;;;;;;5073963;28;20048;-82
2023/12/04 10:39:47;;;;;;;19.80;10.30;;;1.50;99.90;;;;;;5073878;28;20127;-82
2023/12/04 10:42:32;;;;;;;20.90;10.45;;;1.50;99.90;;;;;;5073745;28;20090;-81
2023/12/04 10:44:58;;;;;;;24.00;11.68;;;1.50;99.90;;;;;;5073996;28;20049;-81
2023/12/04 10:47:25;;;;;;;19.73;10.23;;;1.50;99.90;;;;;;5073821;28;20040;-81
2023/12/04 10:49:51;;;;;;;23.08;10.32;;;1.50;99.90;;;;;;5073425;28;20492;-82
2023/12/04 10:52:21;;;;;;;19.90;10.57;;;1.50;99.90;;;;;;5073366;28;20087;-81
2023/12/04 10:54:47;;;;;;;25.88;9.90;;;1.50;99.90;;;;;;5073374;28;20053;-81
2023/12/04 10:57:33;;;;;;;20.65;10.65;;;1.50;99.90;;;;;;5073579;28;20084;-82
2023/12/04 11:00:03;;;;;;;18.60;10.48;;;1.50;99.90;;;;;;5073389;28;20127;-82
2023/12/04 11:02:31;;;;;;;18.73;10.27;;;1.50;99.90;;;;;;5073061;28;20165;-82
2023/12/04 11:05:21;;;;;;;18.95;9.18;;;1.50;99.90;;;;;;5069929;28;20045;-83
2023/12/04 11:07:53;;;;;;;22.65;9.57;;;1.50;99.90;;;;;;5073028;28;20479;-82
2023/12/04 11:10:23;;;;;;;24.15;10.48;;;1.50;99.90;;;;;;5064090;28;20488;-82
2023/12/04 11:12:54;;;;;;;20.75;10.82;;;1.50;99.90;;;;;;5068729;28;20067;-82
2023/12/04 11:15:23;;;;;;;20.20;10.20;;;1.50;99.90;;;;;;5073096;28;20102;-82
2023/12/04 11:17:54;;;;;;;21.08;10.27;;;1.50;99.90;;;;;;5073201;28;20041;-83
2023/12/04 11:20:24;;;;;;;29.63;15.57;;;1.50;99.90;;;;;;5073155;28;20511;-83
2023/12/04 11:22:51;;;;;;;20.02;9.77;;;1.50;99.90;;;;;;5072700;28;20047;-82
2023/12/04 11:25:19;;;;;;;18.08;9.57;;;1.50;99.90;;;;;;5073116;28;20126;-82
2023/12/04 11:27:45;;;;;;;26.55;12.68;;;1.50;99.90;;;;;;5055654;28;20051;-82
2023/12/04 11:30:12;;;;;;;21.42;12.40;;;1.50;99.90;;;;;;5052419;28;20036;-84
2023/12/04 11:32:49;;;;;;;18.55;9.45;;;1.60;99.90;;;;;;5050843;28;20044;-84
2023/12/04 11:35:17;;;;;;;19.75;11.35;;;1.60;99.90;;;;;;5050736;28;20538;-85
2023/12/04 11:37:44;;;;;;;21.08;11.43;;;1.60;99.90;;;;;;5050393;28;20041;-85
2023/12/04 11:40:15;;;;;;;21.10;10.18;;;1.60;99.90;;;;;;5052414;28;20444;-84
2023/12/04 11:42:42;;;;;;;17.98;9.55;;;1.60;99.90;;;;;;5053662;28;20055;-84
2023/12/04 11:45:08;;;;;;;20.90;10.55;;;1.60;99.90;;;;;;5052728;28;20488;-85
2023/12/04 11:47:56;;;;;;;19.30;9.75;;;1.70;99.90;;;;;;5052429;28;20061;-84
2023/12/04 11:50:25;;;;;;;20.65;10.35;;;1.70;99.90;;;;;;5053867;28;20044;-82
2023/12/04 11:52:51;;;;;;;19.08;10.38;;;1.70;99.90;;;;;;5053832;28;20132;-82
2023/12/04 11:55:20;;;;;;;17.92;9.88;;;1.80;99.90;;;;;;5052154;28;20052;-84
2023/12/04 11:57:46;;;;;;;22.52;10.48;;;1.90;99.90;;;;;;5051415;28;20071;-84
2023/12/04 12:00:20;;;;;;;17.42;9.73;;;1.90;99.90;;;;;;5052108;28;20098;-85
2023/12/04 12:02:52;;;;;;;19.88;10.18;;;1.90;99.90;;;;;;5052166;28;20057;-83
2023/12/04 12:05:17;;;;;;;19.65;10.10;;;2.00;99.90;;;;;;5052178;28;20452;-84
2023/12/04 12:07:44;;;;;;;17.45;9.35;;;2.10;99.90;;;;;;5052089;28;20048;-83
2023/12/04 12:10:10;;;;;;;19.80;10.38;;;2.00;99.90;;;;;;5052315;28;20049;-84
2023/12/04 12:12:36;;;;;;;19.83;10.10;;;2.10;99.90;;;;;;5052051;28;20138;-85
2023/12/04 12:15:03;;;;;;;18.77;9.63;;;2.00;99.90;;;;;;5052098;28;20068;-83
2023/12/04 12:17:28;;;;;;;20.60;9.90;;;2.00;99.90;;;;;;5051926;28;20049;-84
2023/12/04 12:19:57;;;;;;;17.77;9.98;;;2.00;99.90;;;;;;5051970;28;20111;-84
2023/12/04 12:22:23;;;;;;;19.25;9.70;;;2.00;99.90;;;;;;5051842;28;20056;-83
2023/12/04 12:24:49;;;;;;;15.20;8.70;;;2.00;99.90;;;;;;5052045;28;20045;-84
2023/12/04 12:27:15;;;;;;;20.38;10.02;;;2.10;99.90;;;;;;5052133;28;20044;-82
2023/12/04 12:29:41;;;;;;;17.80;9.07;;;2.10;99.90;;;;;;5054682;28;20427;-82
2023/12/04 12:32:06;;;;;;;19.63;9.73;;;2.00;99.90;;;;;;5071622;28;20507;-81
2023/12/04 12:34:35;;;;;;;20.52;9.48;;;2.00;99.90;;;;;;5071824;28;20091;-81
2023/12/04 12:37:03;;;;;;;17.73;8.95;;;2.00;99.90;;;;;;5071889;28;20055;-81